sensor_id;sensor_type;location;lat;lon;timestamp;P1;durP1;ratioP1;P2;durP2;ratioP2
20283;SDS011;10301;50.832;4.080;2022-09-09T00:04:32;3.90;;;1.20;;
20283;SDS011;10301;50.832;4.080;2022-09-09T00:07:10;7.55;;;1.70;;
20283;SDS011;10301;50.832;4.080;2022-09-09T00:14:55;7.40;;;2.03;;
20283;SDS011;10301;50.832;4.080;2022-09-09T00:20:13;6.50;;;2.03;;
20283;SDS011;10301;50.832;4.080;2022-09-09T00:22:46;5.80;;;1.80;;
20283;SDS011;10301;50.832;4.080;2022-09-09T00:25:23;7.68;;;1.80;;
20283;SDS011;10301;50.832;4.080;2022-09-09T00:27:54;9.50;;;1.90;;
20283;SDS011;10301;50.832;4.080;2022-09-09T00:32:55;6.75;;;1.70;;
20283;SDS011;10301;50.832;4.080;2022-09-09T00:35:27;6.88;;;2.08;;
20283;SDS011;10301;50.832;4.080;2022-09-09T00:38:09;7.55;;;2.25;;
20283;SDS011;10301;50.832;4.080;2022-09-09T00:43:33;8.15;;;2.10;;
20283;SDS011;10301;50.832;4.080;2022-09-09T00:49:13;8.70;;;2.55;;
20283;SDS011;10301;50.832;4.080;2022-09-09T00:56:58;6.45;;;2.95;;
20283;SDS011;10301;50.832;4.080;2022-09-09T01:02:16;7.72;;;3.50;;
20283;SDS011;10301;50.832;4.080;2022-09-09T01:04:50;10.07;;;3.72;;
20283;SDS011;10301;50.832;4.080;2022-09-09T01:07:16;11.75;;;3.70;;
20283;SDS011;10301;50.832;4.080;2022-09-09T01:09:57;11.27;;;4.10;;
20283;SDS011;10301;50.832;4.080;2022-09-09T01:17:31;14.15;;;4.95;;
20283;SDS011;10301;50.832;4.080;2022-09-09T01:23:41;13.40;;;4.68;;
20283;SDS011;10301;50.832;4.080;2022-09-09T01:26:02;12.23;;;4.72;;
20283;SDS011;10301;50.832;4.080;2022-09-09T01:28:30;11.60;;;4.65;;
20283;SDS011;10301;50.832;4.080;2022-09-09T01:31:00;12.02;;;4.60;;
20283;SDS011;10301;50.832;4.080;2022-09-09T01:33:30;10.10;;;4.47;;
20283;SDS011;10301;50.832;4.080;2022-09-09T01:35:57;10.18;;;4.43;;
20283;SDS011;10301;50.832;4.080;2022-09-09T01:38:28;10.82;;;3.67;;
20283;SDS011;10301;50.832;4.080;2022-09-09T01:40:56;8.43;;;3.55;;
20283;SDS011;10301;50.832;4.080;2022-09-09T01:43:23;12.20;;;3.08;;
20283;SDS011;10301;50.832;4.080;2022-09-09T01:45:51;15.57;;;3.60;;
20283;SDS011;10301;50.832;4.080;2022-09-09T01:48:20;7.20;;;2.92;;
20283;SDS011;10301;50.832;4.080;2022-09-09T01:50:48;10.90;;;3.25;;
20283;SDS011;10301;50.832;4.080;2022-09-09T01:53:14;12.32;;;2.80;;
20283;SDS011;10301;50.832;4.080;2022-09-09T01:55:42;9.55;;;3.28;;
20283;SDS011;10301;50.832;4.080;2022-09-09T01:59:01;9.70;;;2.72;;
20283;SDS011;10301;50.832;4.080;2022-09-09T02:01:51;10.15;;;2.90;;
20283;SDS011;10301;50.832;4.080;2022-09-09T02:04:40;13.05;;;2.92;;
20283;SDS011;10301;50.832;4.080;2022-09-09T02:09:57;7.00;;;2.60;;
20283;SDS011;10301;50.832;4.080;2022-09-09T02:12:33;14.05;;;2.47;;
20283;SDS011;10301;50.832;4.080;2022-09-09T02:15:03;7.68;;;2.50;;
20283;SDS011;10301;50.832;4.080;2022-09-09T02:17:35;8.57;;;2.75;;
20283;SDS011;10301;50.832;4.080;2022-09-09T02:20:13;12.73;;;2.85;;
20283;SDS011;10301;50.832;4.080;2022-09-09T02:22:40;9.88;;;2.72;;
20283;SDS011;10301;50.832;4.080;2022-09-09T02:25:10;10.68;;;2.40;;
20283;SDS011;10301;50.832;4.080;2022-09-09T02:27:39;13.27;;;2.78;;
20283;SDS011;10301;50.832;4.080;2022-09-09T02:30:08;10.50;;;2.58;;
20283;SDS011;10301;50.832;4.080;2022-09-09T02:32:35;11.80;;;3.08;;
20283;SDS011;10301;50.832;4.080;2022-09-09T02:35:08;13.63;;;2.33;;
20283;SDS011;10301;50.832;4.080;2022-09-09T02:37:37;9.48;;;2.50;;
20283;SDS011;10301;50.832;4.080;2022-09-09T02:40:05;8.52;;;2.38;;
20283;SDS011;10301;50.832;4.080;2022-09-09T02:42:38;17.10;;;2.60;;
20283;SDS011;10301;50.832;4.080;2022-09-09T02:45:12;13.18;;;2.10;;
20283;SDS011;10301;50.832;4.080;2022-09-09T02:48:04;7.70;;;2.40;;
20283;SDS011;10301;50.832;4.080;2022-09-09T02:51:22;9.90;;;2.25;;
20283;SDS011;10301;50.832;4.080;2022-09-09T02:53:43;10.43;;;2.28;;
20283;SDS011;10301;50.832;4.080;2022-09-09T02:56:16;6.97;;;1.88;;
20283;SDS011;10301;50.832;4.080;2022-09-09T02:58:44;10.18;;;2.65;;
20283;SDS011;10301;50.832;4.080;2022-09-09T03:01:11;13.10;;;2.42;;
20283;SDS011;10301;50.832;4.080;2022-09-09T03:03:37;11.15;;;2.08;;
20283;SDS011;10301;50.832;4.080;2022-09-09T03:06:03;7.28;;;2.33;;
20283;SDS011;10301;50.832;4.080;2022-09-09T03:08:30;6.80;;;2.20;;
20283;SDS011;10301;50.832;4.080;2022-09-09T03:10:58;8.32;;;2.22;;
20283;SDS011;10301;50.832;4.080;2022-09-09T03:13:26;9.15;;;2.60;;
20283;SDS011;10301;50.832;4.080;2022-09-09T03:15:51;10.85;;;2.53;;
20283;SDS011;10301;50.832;4.080;2022-09-09T03:18:17;11.02;;;2.00;;
20283;SDS011;10301;50.832;4.080;2022-09-09T03:20:43;8.73;;;2.10;;
20283;SDS011;10301;50.832;4.080;2022-09-09T03:23:08;11.45;;;2.50;;
20283;SDS011;10301;50.832;4.080;2022-09-09T03:25:34;13.65;;;2.83;;
20283;SDS011;10301;50.832;4.080;2022-09-09T03:28:00;13.05;;;2.42;;
20283;SDS011;10301;50.832;4.080;2022-09-09T03:30:27;12.60;;;2.30;;
20283;SDS011;10301;50.832;4.080;2022-09-09T03:32:53;14.43;;;2.90;;
20283;SDS011;10301;50.832;4.080;2022-09-09T03:35:20;7.25;;;2.03;;
20283;SDS011;10301;50.832;4.080;2022-09-09T03:37:46;14.80;;;2.45;;
20283;SDS011;10301;50.832;4.080;2022-09-09T03:40:12;8.63;;;2.00;;
20283;SDS011;10301;50.832;4.080;2022-09-09T03:42:39;10.80;;;2.35;;
20283;SDS011;10301;50.832;4.080;2022-09-09T03:45:05;11.02;;;2.97;;
20283;SDS011;10301;50.832;4.080;2022-09-09T03:47:34;11.63;;;2.40;;
20283;SDS011;10301;50.832;4.080;2022-09-09T03:49:59;10.40;;;2.42;;
20283;SDS011;10301;50.832;4.080;2022-09-09T03:52:25;9.52;;;2.30;;
20283;SDS011;10301;50.832;4.080;2022-09-09T03:54:52;12.55;;;2.67;;
20283;SDS011;10301;50.832;4.080;2022-09-09T03:57:18;11.82;;;2.50;;
20283;SDS011;10301;50.832;4.080;2022-09-09T03:59:45;12.40;;;2.63;;
20283;SDS011;10301;50.832;4.080;2022-09-09T04:02:10;12.32;;;2.30;;
20283;SDS011;10301;50.832;4.080;2022-09-09T04:04:36;15.52;;;2.55;;
20283;SDS011;10301;50.832;4.080;2022-09-09T04:07:02;11.45;;;2.30;;
20283;SDS011;10301;50.832;4.080;2022-09-09T04:09:27;11.82;;;2.40;;
20283;SDS011;10301;50.832;4.080;2022-09-09T04:11:53;10.10;;;2.30;;
20283;SDS011;10301;50.832;4.080;2022-09-09T04:14:20;13.45;;;2.08;;
20283;SDS011;10301;50.832;4.080;2022-09-09T04:16:46;10.68;;;2.53;;
20283;SDS011;10301;50.832;4.080;2022-09-09T04:19:12;7.40;;;1.98;;
20283;SDS011;10301;50.832;4.080;2022-09-09T04:21:42;10.82;;;2.53;;
20283;SDS011;10301;50.832;4.080;2022-09-09T04:24:08;12.88;;;2.50;;
20283;SDS011;10301;50.832;4.080;2022-09-09T04:26:34;11.85;;;3.00;;
20283;SDS011;10301;50.832;4.080;2022-09-09T04:29:01;11.93;;;2.20;;
20283;SDS011;10301;50.832;4.080;2022-09-09T04:31:28;14.45;;;2.33;;
20283;SDS011;10301;50.832;4.080;2022-09-09T04:33:54;11.32;;;2.60;;
20283;SDS011;10301;50.832;4.080;2022-09-09T04:36:19;12.13;;;2.72;;
20283;SDS011;10301;50.832;4.080;2022-09-09T04:38:46;12.38;;;2.80;;
20283;SDS011;10301;50.832;4.080;2022-09-09T04:41:13;12.60;;;2.78;;
20283;SDS011;10301;50.832;4.080;2022-09-09T04:43:40;10.73;;;2.35;;
20283;SDS011;10301;50.832;4.080;2022-09-09T04:46:06;11.80;;;2.58;;
20283;SDS011;10301;50.832;4.080;2022-09-09T04:48:31;11.32;;;2.58;;
20283;SDS011;10301;50.832;4.080;2022-09-09T04:50:58;16.05;;;2.83;;
20283;SDS011;10301;50.832;4.080;2022-09-09T04:53:29;11.75;;;2.50;;
20283;SDS011;10301;50.832;4.080;2022-09-09T04:56:05;11.73;;;2.58;;
20283;SDS011;10301;50.832;4.080;2022-09-09T04:58:33;9.98;;;2.55;;
20283;SDS011;10301;50.832;4.080;2022-09-09T05:01:09;9.48;;;3.17;;
20283;SDS011;10301;50.832;4.080;2022-09-09T05:03:37;12.90;;;2.65;;
20283;SDS011;10301;50.832;4.080;2022-09-09T05:06:03;12.00;;;2.65;;
20283;SDS011;10301;50.832;4.080;2022-09-09T05:08:36;11.10;;;2.53;;
20283;SDS011;10301;50.832;4.080;2022-09-09T05:11:03;15.52;;;2.47;;
20283;SDS011;10301;50.832;4.080;2022-09-09T05:13:39;12.02;;;2.53;;
20283;SDS011;10301;50.832;4.080;2022-09-09T05:16:05;10.45;;;2.58;;
20283;SDS011;10301;50.832;4.080;2022-09-09T05:18:30;9.05;;;2.30;;
20283;SDS011;10301;50.832;4.080;2022-09-09T05:20:59;11.55;;;2.80;;
20283;SDS011;10301;50.832;4.080;2022-09-09T05:23:25;11.13;;;2.80;;
20283;SDS011;10301;50.832;4.080;2022-09-09T05:25:55;11.05;;;2.80;;
20283;SDS011;10301;50.832;4.080;2022-09-09T05:28:21;10.98;;;2.38;;
20283;SDS011;10301;50.832;4.080;2022-09-09T05:30:55;9.95;;;2.40;;
20283;SDS011;10301;50.832;4.080;2022-09-09T05:33:32;10.48;;;2.58;;
20283;SDS011;10301;50.832;4.080;2022-09-09T05:36:03;15.25;;;2.80;;
20283;SDS011;10301;50.832;4.080;2022-09-09T05:38:31;12.30;;;2.65;;
20283;SDS011;10301;50.832;4.080;2022-09-09T05:41:00;13.63;;;2.38;;
20283;SDS011;10301;50.832;4.080;2022-09-09T05:43:27;15.30;;;2.80;;
20283;SDS011;10301;50.832;4.080;2022-09-09T05:46:04;13.85;;;3.20;;
20283;SDS011;10301;50.832;4.080;2022-09-09T05:48:31;20.95;;;2.97;;
20283;SDS011;10301;50.832;4.080;2022-09-09T05:50:59;10.35;;;2.67;;
20283;SDS011;10301;50.832;4.080;2022-09-09T05:53:25;15.40;;;2.80;;
20283;SDS011;10301;50.832;4.080;2022-09-09T05:55:59;12.75;;;2.28;;
20283;SDS011;10301;50.832;4.080;2022-09-09T05:58:28;11.60;;;2.47;;
20283;SDS011;10301;50.832;4.080;2022-09-09T06:01:05;13.27;;;2.63;;
20283;SDS011;10301;50.832;4.080;2022-09-09T06:03:35;14.50;;;2.80;;
20283;SDS011;10301;50.832;4.080;2022-09-09T06:06:03;15.38;;;2.60;;
20283;SDS011;10301;50.832;4.080;2022-09-09T06:08:32;12.02;;;2.38;;
20283;SDS011;10301;50.832;4.080;2022-09-09T06:11:03;12.63;;;2.35;;
20283;SDS011;10301;50.832;4.080;2022-09-09T06:13:30;9.98;;;2.42;;
20283;SDS011;10301;50.832;4.080;2022-09-09T06:15:56;12.23;;;2.20;;
20283;SDS011;10301;50.832;4.080;2022-09-09T06:18:23;9.13;;;1.92;;
20283;SDS011;10301;50.832;4.080;2022-09-09T06:20:55;12.95;;;2.30;;
20283;SDS011;10301;50.832;4.080;2022-09-09T06:23:31;10.93;;;2.28;;
20283;SDS011;10301;50.832;4.080;2022-09-09T06:26:05;8.77;;;2.55;;
20283;SDS011;10301;50.832;4.080;2022-09-09T06:28:34;13.07;;;2.30;;
20283;SDS011;10301;50.832;4.080;2022-09-09T06:31:02;11.43;;;2.40;;
20283;SDS011;10301;50.832;4.080;2022-09-09T06:33:33;9.75;;;1.90;;
20283;SDS011;10301;50.832;4.080;2022-09-09T06:36:00;14.60;;;2.83;;
20283;SDS011;10301;50.832;4.080;2022-09-09T06:38:28;10.77;;;2.40;;
20283;SDS011;10301;50.832;4.080;2022-09-09T06:40:54;12.70;;;2.20;;
20283;SDS011;10301;50.832;4.080;2022-09-09T06:43:24;10.20;;;2.20;;
20283;SDS011;10301;50.832;4.080;2022-09-09T06:46:04;13.60;;;2.08;;
20283;SDS011;10301;50.832;4.080;2022-09-09T06:48:30;14.50;;;2.35;;
20283;SDS011;10301;50.832;4.080;2022-09-09T06:53:32;12.05;;;2.72;;
20283;SDS011;10301;50.832;4.080;2022-09-09T06:56:02;12.50;;;2.33;;
20283;SDS011;10301;50.832;4.080;2022-09-09T06:58:41;14.77;;;2.53;;
20283;SDS011;10301;50.832;4.080;2022-09-09T07:01:14;10.18;;;2.10;;
20283;SDS011;10301;50.832;4.080;2022-09-09T07:03:42;13.05;;;2.20;;
20283;SDS011;10301;50.832;4.080;2022-09-09T07:06:23;11.85;;;2.90;;
20283;SDS011;10301;50.832;4.080;2022-09-09T07:08:51;9.80;;;2.15;;
20283;SDS011;10301;50.832;4.080;2022-09-09T07:11:21;13.32;;;2.28;;
20283;SDS011;10301;50.832;4.080;2022-09-09T07:13:48;10.07;;;2.40;;
20283;SDS011;10301;50.832;4.080;2022-09-09T07:16:18;11.77;;;2.40;;
20283;SDS011;10301;50.832;4.080;2022-09-09T07:18:45;10.40;;;2.80;;
20283;SDS011;10301;50.832;4.080;2022-09-09T07:21:12;8.63;;;3.20;;
20283;SDS011;10301;50.832;4.080;2022-09-09T07:23:39;11.07;;;2.40;;
20283;SDS011;10301;50.832;4.080;2022-09-09T07:26:10;11.68;;;2.42;;
20283;SDS011;10301;50.832;4.080;2022-09-09T07:28:37;9.43;;;2.05;;
20283;SDS011;10301;50.832;4.080;2022-09-09T07:31:03;13.25;;;2.10;;
20283;SDS011;10301;50.832;4.080;2022-09-09T07:33:31;11.75;;;2.58;;
20283;SDS011;10301;50.832;4.080;2022-09-09T07:36:08;8.90;;;2.20;;
20283;SDS011;10301;50.832;4.080;2022-09-09T07:38:47;11.98;;;2.20;;
20283;SDS011;10301;50.832;4.080;2022-09-09T07:41:17;9.00;;;2.53;;
20283;SDS011;10301;50.832;4.080;2022-09-09T07:43:48;9.45;;;2.53;;
20283;SDS011;10301;50.832;4.080;2022-09-09T07:46:16;11.15;;;2.28;;
20283;SDS011;10301;50.832;4.080;2022-09-09T07:48:48;12.00;;;2.38;;
20283;SDS011;10301;50.832;4.080;2022-09-09T07:51:24;12.25;;;2.28;;
20283;SDS011;10301;50.832;4.080;2022-09-09T07:53:52;10.85;;;2.28;;
20283;SDS011;10301;50.832;4.080;2022-09-09T07:56:20;10.38;;;2.33;;
20283;SDS011;10301;50.832;4.080;2022-09-09T07:58:49;7.78;;;1.77;;
20283;SDS011;10301;50.832;4.080;2022-09-09T08:01:20;12.65;;;2.25;;
20283;SDS011;10301;50.832;4.080;2022-09-09T08:04:06;10.50;;;2.42;;
20283;SDS011;10301;50.832;4.080;2022-09-09T08:06:35;8.23;;;1.83;;
20283;SDS011;10301;50.832;4.080;2022-09-09T08:09:06;7.43;;;1.70;;
20283;SDS011;10301;50.832;4.080;2022-09-09T08:11:33;8.35;;;1.80;;
20283;SDS011;10301;50.832;4.080;2022-09-09T08:14:01;10.63;;;1.80;;
20283;SDS011;10301;50.832;4.080;2022-09-09T08:16:32;7.03;;;1.88;;
20283;SDS011;10301;50.832;4.080;2022-09-09T08:18:59;13.55;;;2.38;;
20283;SDS011;10301;50.832;4.080;2022-09-09T08:21:26;6.32;;;2.20;;
20283;SDS011;10301;50.832;4.080;2022-09-09T08:23:54;7.28;;;2.08;;
20283;SDS011;10301;50.832;4.080;2022-09-09T08:26:21;10.50;;;2.10;;
20283;SDS011;10301;50.832;4.080;2022-09-09T08:28:49;9.68;;;2.40;;
20283;SDS011;10301;50.832;4.080;2022-09-09T08:31:20;11.65;;;2.28;;
20283;SDS011;10301;50.832;4.080;2022-09-09T08:33:48;13.93;;;2.00;;
20283;SDS011;10301;50.832;4.080;2022-09-09T08:36:15;16.27;;;3.33;;
20283;SDS011;10301;50.832;4.080;2022-09-09T08:38:43;11.80;;;2.28;;
20283;SDS011;10301;50.832;4.080;2022-09-09T08:44:03;10.18;;;2.30;;
20283;SDS011;10301;50.832;4.080;2022-09-09T08:46:39;15.43;;;2.67;;
20283;SDS011;10301;50.832;4.080;2022-09-09T08:49:16;11.27;;;2.50;;
20283;SDS011;10301;50.832;4.080;2022-09-09T08:51:56;9.35;;;2.92;;
20283;SDS011;10301;50.832;4.080;2022-09-09T08:54:23;10.40;;;2.10;;
20283;SDS011;10301;50.832;4.080;2022-09-09T08:56:53;7.40;;;2.38;;
20283;SDS011;10301;50.832;4.080;2022-09-09T08:59:19;10.98;;;2.38;;
20283;SDS011;10301;50.832;4.080;2022-09-09T09:01:48;11.77;;;2.60;;
20283;SDS011;10301;50.832;4.080;2022-09-09T09:12:48;11.35;;;2.22;;
20283;SDS011;10301;50.832;4.080;2022-09-09T09:15:16;6.82;;;2.13;;
20283;SDS011;10301;50.832;4.080;2022-09-09T09:17:46;8.23;;;2.20;;
20283;SDS011;10301;50.832;4.080;2022-09-09T09:20:14;12.73;;;2.55;;
20283;SDS011;10301;50.832;4.080;2022-09-09T09:22:47;10.40;;;2.28;;
20283;SDS011;10301;50.832;4.080;2022-09-09T09:25:31;8.95;;;2.50;;
20283;SDS011;10301;50.832;4.080;2022-09-09T09:28:10;9.52;;;2.90;;
20283;SDS011;10301;50.832;4.080;2022-09-09T09:30:49;14.13;;;2.65;;
20283;SDS011;10301;50.832;4.080;2022-09-09T09:36:00;12.05;;;2.40;;
20283;SDS011;10301;50.832;4.080;2022-09-09T09:38:27;9.95;;;2.45;;
20283;SDS011;10301;50.832;4.080;2022-09-09T09:40:58;9.43;;;2.42;;
20283;SDS011;10301;50.832;4.080;2022-09-09T09:43:26;12.57;;;2.92;;
20283;SDS011;10301;50.832;4.080;2022-09-09T09:45:54;9.57;;;2.50;;
20283;SDS011;10301;50.832;4.080;2022-09-09T09:48:20;13.20;;;2.47;;
20283;SDS011;10301;50.832;4.080;2022-09-09T09:50:50;11.27;;;2.50;;
20283;SDS011;10301;50.832;4.080;2022-09-09T09:53:26;8.93;;;2.28;;
20283;SDS011;10301;50.832;4.080;2022-09-09T09:55:55;10.18;;;2.20;;
20283;SDS011;10301;50.832;4.080;2022-09-09T09:58:47;7.15;;;2.10;;
20283;SDS011;10301;50.832;4.080;2022-09-09T10:03:59;7.70;;;2.05;;
20283;SDS011;10301;50.832;4.080;2022-09-09T10:06:38;9.65;;;2.60;;
20283;SDS011;10301;50.832;4.080;2022-09-09T10:11:55;7.75;;;2.15;;
20283;SDS011;10301;50.832;4.080;2022-09-09T10:17:53;10.10;;;2.42;;
20283;SDS011;10301;50.832;4.080;2022-09-09T10:20:35;9.40;;;2.10;;
20283;SDS011;10301;50.832;4.080;2022-09-09T10:23:46;7.13;;;2.13;;
20283;SDS011;10301;50.832;4.080;2022-09-09T10:29:24;12.50;;;2.30;;
20283;SDS011;10301;50.832;4.080;2022-09-09T10:32:01;11.38;;;2.53;;
20283;SDS011;10301;50.832;4.080;2022-09-09T10:34:55;10.05;;;2.38;;
20283;SDS011;10301;50.832;4.080;2022-09-09T10:40:19;7.35;;;1.85;;
20283;SDS011;10301;50.832;4.080;2022-09-09T10:42:46;9.23;;;2.05;;
20283;SDS011;10301;50.832;4.080;2022-09-09T10:45:20;9.18;;;1.95;;
20283;SDS011;10301;50.832;4.080;2022-09-09T10:50:49;10.77;;;1.90;;
20283;SDS011;10301;50.832;4.080;2022-09-09T10:55:51;7.55;;;1.70;;
20283;SDS011;10301;50.832;4.080;2022-09-09T10:58:23;6.13;;;1.40;;
20283;SDS011;10301;50.832;4.080;2022-09-09T11:00:56;7.25;;;1.73;;
20283;SDS011;10301;50.832;4.080;2022-09-09T11:03:26;9.63;;;2.25;;
20283;SDS011;10301;50.832;4.080;2022-09-09T11:08:29;5.75;;;1.55;;
20283;SDS011;10301;50.832;4.080;2022-09-09T11:11:17;6.97;;;2.00;;
20283;SDS011;10301;50.832;4.080;2022-09-09T11:13:53;7.82;;;1.60;;
20283;SDS011;10301;50.832;4.080;2022-09-09T11:16:33;11.88;;;1.67;;
20283;SDS011;10301;50.832;4.080;2022-09-09T11:19:14;7.25;;;1.77;;
20283;SDS011;10301;50.832;4.080;2022-09-09T11:21:49;5.38;;;1.40;;
20283;SDS011;10301;50.832;4.080;2022-09-09T11:27:12;5.00;;;1.58;;
20283;SDS011;10301;50.832;4.080;2022-09-09T11:40:44;8.02;;;1.80;;
20283;SDS011;10301;50.832;4.080;2022-09-09T11:43:15;5.60;;;1.45;;
20283;SDS011;10301;50.832;4.080;2022-09-09T11:45:57;6.32;;;1.70;;
20283;SDS011;10301;50.832;4.080;2022-09-09T11:48:30;7.95;;;1.70;;
20283;SDS011;10301;50.832;4.080;2022-09-09T11:50:59;6.35;;;1.58;;
20283;SDS011;10301;50.832;4.080;2022-09-09T11:53:47;7.20;;;1.80;;
20283;SDS011;10301;50.832;4.080;2022-09-09T11:59:20;7.53;;;1.85;;
20283;SDS011;10301;50.832;4.080;2022-09-09T12:09:30;7.95;;;1.52;;
20283;SDS011;10301;50.832;4.080;2022-09-09T12:12:06;5.85;;;1.75;;
20283;SDS011;10301;50.832;4.080;2022-09-09T12:19:39;7.13;;;1.70;;
20283;SDS011;10301;50.832;4.080;2022-09-09T12:24:54;5.28;;;1.33;;
20283;SDS011;10301;50.832;4.080;2022-09-09T12:27:46;5.35;;;1.40;;
20283;SDS011;10301;50.832;4.080;2022-09-09T12:30:28;6.03;;;1.30;;
20283;SDS011;10301;50.832;4.080;2022-09-09T12:33:07;5.07;;;1.48;;
20283;SDS011;10301;50.832;4.080;2022-09-09T12:35:36;5.32;;;1.52;;
20283;SDS011;10301;50.832;4.080;2022-09-09T12:38:03;8.57;;;1.70;;
20283;SDS011;10301;50.832;4.080;2022-09-09T12:40:33;14.60;;;1.83;;
20283;SDS011;10301;50.832;4.080;2022-09-09T12:43:14;5.35;;;1.50;;
20283;SDS011;10301;50.832;4.080;2022-09-09T12:45:46;4.63;;;1.42;;
20283;SDS011;10301;50.832;4.080;2022-09-09T12:48:15;5.70;;;1.60;;
20283;SDS011;10301;50.832;4.080;2022-09-09T12:50:44;6.03;;;1.38;;
20283;SDS011;10301;50.832;4.080;2022-09-09T12:53:17;8.38;;;1.40;;
20283;SDS011;10301;50.832;4.080;2022-09-09T12:55:54;6.45;;;1.40;;
20283;SDS011;10301;50.832;4.080;2022-09-09T12:58:29;5.03;;;1.50;;
20283;SDS011;10301;50.832;4.080;2022-09-09T13:00:59;7.22;;;1.60;;
20283;SDS011;10301;50.832;4.080;2022-09-09T13:03:25;8.30;;;1.58;;
20283;SDS011;10301;50.832;4.080;2022-09-09T13:05:52;5.97;;;1.65;;
20283;SDS011;10301;50.832;4.080;2022-09-09T13:08:18;7.65;;;1.35;;
20283;SDS011;10301;50.832;4.080;2022-09-09T13:13:35;3.95;;;1.00;;
20283;SDS011;10301;50.832;4.080;2022-09-09T13:16:03;7.15;;;1.40;;
20283;SDS011;10301;50.832;4.080;2022-09-09T13:18:33;8.05;;;1.75;;
20283;SDS011;10301;50.832;4.080;2022-09-09T13:21:01;5.85;;;1.48;;
20283;SDS011;10301;50.832;4.080;2022-09-09T13:23:28;7.25;;;1.60;;
20283;SDS011;10301;50.832;4.080;2022-09-09T13:25:58;4.50;;;1.52;;
20283;SDS011;10301;50.832;4.080;2022-09-09T13:28:26;4.18;;;1.15;;
20283;SDS011;10301;50.832;4.080;2022-09-09T13:31:01;4.20;;;1.30;;
20283;SDS011;10301;50.832;4.080;2022-09-09T13:33:37;4.50;;;1.30;;
20283;SDS011;10301;50.832;4.080;2022-09-09T13:36:05;5.53;;;1.00;;
20283;SDS011;10301;50.832;4.080;2022-09-09T13:38:36;4.45;;;1.30;;
20283;SDS011;10301;50.832;4.080;2022-09-09T13:41:19;6.50;;;1.30;;
20283;SDS011;10301;50.832;4.080;2022-09-09T13:43:48;5.88;;;1.30;;
20283;SDS011;10301;50.832;4.080;2022-09-09T13:51:34;6.05;;;1.48;;
20283;SDS011;10301;50.832;4.080;2022-09-09T13:54:02;5.78;;;1.38;;
20283;SDS011;10301;50.832;4.080;2022-09-09T13:56:32;5.53;;;1.75;;
20283;SDS011;10301;50.832;4.080;2022-09-09T13:58:58;6.95;;;1.80;;
20283;SDS011;10301;50.832;4.080;2022-09-09T14:01:24;4.60;;;1.38;;
20283;SDS011;10301;50.832;4.080;2022-09-09T14:03:49;9.35;;;1.85;;
20283;SDS011;10301;50.832;4.080;2022-09-09T14:06:16;6.25;;;1.80;;
20283;SDS011;10301;50.832;4.080;2022-09-09T14:08:43;6.97;;;1.75;;
20283;SDS011;10301;50.832;4.080;2022-09-09T14:11:11;6.72;;;1.70;;
20283;SDS011;10301;50.832;4.080;2022-09-09T14:13:38;7.97;;;1.80;;
20283;SDS011;10301;50.832;4.080;2022-09-09T14:16:04;4.82;;;1.60;;
20283;SDS011;10301;50.832;4.080;2022-09-09T14:18:29;4.72;;;1.50;;
20283;SDS011;10301;50.832;4.080;2022-09-09T14:20:55;6.43;;;1.80;;
20283;SDS011;10301;50.832;4.080;2022-09-09T14:23:22;7.55;;;1.77;;
20283;SDS011;10301;50.832;4.080;2022-09-09T14:25:50;8.55;;;1.80;;
20283;SDS011;10301;50.832;4.080;2022-09-09T14:28:16;4.63;;;1.70;;
20283;SDS011;10301;50.832;4.080;2022-09-09T14:30:43;4.90;;;1.55;;
20283;SDS011;10301;50.832;4.080;2022-09-09T14:33:10;5.75;;;1.77;;
20283;SDS011;10301;50.832;4.080;2022-09-09T14:35:37;5.47;;;1.50;;
20283;SDS011;10301;50.832;4.080;2022-09-09T14:38:03;4.90;;;1.55;;
20283;SDS011;10301;50.832;4.080;2022-09-09T14:40:30;5.35;;;1.60;;
20283;SDS011;10301;50.832;4.080;2022-09-09T14:42:56;6.47;;;1.90;;
20283;SDS011;10301;50.832;4.080;2022-09-09T14:45:25;6.45;;;1.65;;
20283;SDS011;10301;50.832;4.080;2022-09-09T14:47:51;3.40;;;1.25;;
20283;SDS011;10301;50.832;4.080;2022-09-09T14:50:18;5.72;;;1.67;;
20283;SDS011;10301;50.832;4.080;2022-09-09T14:52:44;6.57;;;1.83;;
20283;SDS011;10301;50.832;4.080;2022-09-09T14:55:10;8.43;;;1.90;;
20283;SDS011;10301;50.832;4.080;2022-09-09T14:57:36;5.32;;;1.70;;
20283;SDS011;10301;50.832;4.080;2022-09-09T15:00:04;9.75;;;2.03;;
20283;SDS011;10301;50.832;4.080;2022-09-09T15:02:30;5.28;;;1.70;;
20283;SDS011;10301;50.832;4.080;2022-09-09T15:04:56;8.45;;;1.48;;
20283;SDS011;10301;50.832;4.080;2022-09-09T15:07:23;5.95;;;1.63;;
20283;SDS011;10301;50.832;4.080;2022-09-09T15:09:53;7.35;;;1.73;;
20283;SDS011;10301;50.832;4.080;2022-09-09T15:12:19;7.60;;;1.52;;
20283;SDS011;10301;50.832;4.080;2022-09-09T15:14:45;6.22;;;1.73;;
20283;SDS011;10301;50.832;4.080;2022-09-09T15:17:12;8.27;;;1.80;;
20283;SDS011;10301;50.832;4.080;2022-09-09T15:19:38;7.38;;;2.03;;
20283;SDS011;10301;50.832;4.080;2022-09-09T15:22:04;5.85;;;1.60;;
20283;SDS011;10301;50.832;4.080;2022-09-09T15:24:31;8.50;;;1.70;;
20283;SDS011;10301;50.832;4.080;2022-09-09T15:26:57;8.10;;;1.55;;
20283;SDS011;10301;50.832;4.080;2022-09-09T15:29:23;6.35;;;1.63;;
20283;SDS011;10301;50.832;4.080;2022-09-09T15:31:49;6.13;;;1.70;;
20283;SDS011;10301;50.832;4.080;2022-09-09T15:34:14;4.47;;;1.48;;
20283;SDS011;10301;50.832;4.080;2022-09-09T15:36:41;5.95;;;1.83;;
20283;SDS011;10301;50.832;4.080;2022-09-09T15:39:09;5.40;;;1.67;;
20283;SDS011;10301;50.832;4.080;2022-09-09T15:41:40;5.15;;;1.75;;
20283;SDS011;10301;50.832;4.080;2022-09-09T15:44:07;4.57;;;1.52;;
20283;SDS011;10301;50.832;4.080;2022-09-09T15:46:39;4.75;;;1.50;;
20283;SDS011;10301;50.832;4.080;2022-09-09T15:49:18;8.85;;;2.00;;
20283;SDS011;10301;50.832;4.080;2022-09-09T15:51:54;5.22;;;1.67;;
20283;SDS011;10301;50.832;4.080;2022-09-09T15:54:23;7.10;;;1.60;;
20283;SDS011;10301;50.832;4.080;2022-09-09T15:56:51;5.82;;;1.63;;
20283;SDS011;10301;50.832;4.080;2022-09-09T15:59:21;4.43;;;1.20;;
20283;SDS011;10301;50.832;4.080;2022-09-09T16:01:54;3.47;;;1.13;;
20283;SDS011;10301;50.832;4.080;2022-09-09T16:04:20;7.03;;;1.27;;
20283;SDS011;10301;50.832;4.080;2022-09-09T16:06:50;4.35;;;1.30;;
20283;SDS011;10301;50.832;4.080;2022-09-09T16:09:34;3.67;;;1.35;;
20283;SDS011;10301;50.832;4.080;2022-09-09T16:12:01;5.25;;;1.77;;
20283;SDS011;10301;50.832;4.080;2022-09-09T16:14:31;6.05;;;1.67;;
20283;SDS011;10301;50.832;4.080;2022-09-09T16:16:59;5.10;;;1.80;;
20283;SDS011;10301;50.832;4.080;2022-09-09T16:19:25;6.40;;;1.98;;
20283;SDS011;10301;50.832;4.080;2022-09-09T16:21:50;8.30;;;2.08;;
20283;SDS011;10301;50.832;4.080;2022-09-09T16:24:17;5.90;;;1.90;;
20283;SDS011;10301;50.832;4.080;2022-09-09T16:26:44;6.15;;;1.70;;
20283;SDS011;10301;50.832;4.080;2022-09-09T16:29:12;5.68;;;1.60;;
20283;SDS011;10301;50.832;4.080;2022-09-09T16:31:39;8.00;;;1.90;;
20283;SDS011;10301;50.832;4.080;2022-09-09T16:34:07;4.18;;;1.55;;
20283;SDS011;10301;50.832;4.080;2022-09-09T16:36:34;4.95;;;1.75;;
20283;SDS011;10301;50.832;4.080;2022-09-09T16:39:08;8.80;;;1.58;;
20283;SDS011;10301;50.832;4.080;2022-09-09T16:41:36;4.80;;;1.45;;
20283;SDS011;10301;50.832;4.080;2022-09-09T16:44:04;4.55;;;1.77;;
20283;SDS011;10301;50.832;4.080;2022-09-09T16:46:32;5.53;;;1.73;;
20283;SDS011;10301;50.832;4.080;2022-09-09T16:48:59;5.60;;;1.30;;
20283;SDS011;10301;50.832;4.080;2022-09-09T16:51:30;5.65;;;1.75;;
20283;SDS011;10301;50.832;4.080;2022-09-09T16:54:00;4.43;;;1.42;;
20283;SDS011;10301;50.832;4.080;2022-09-09T16:56:28;6.72;;;1.77;;
20283;SDS011;10301;50.832;4.080;2022-09-09T16:58:56;9.90;;;1.92;;
20283;SDS011;10301;50.832;4.080;2022-09-09T17:01:24;4.90;;;1.90;;